Time;durP1;ratioP1;P1;durP2;ratioP2;P2;SDS_P1;SDS_P2;PMS_P1;PMS_P2;Temp;Humidity;BMP_temperature;BMP_pressure;BME280_temperature;BME280_humidity;BME280_pressure;Samples;Min_cycle;Max_cycle;Signal;HPM_P1;HPM_P2
2023/01/19 00:02:24;;;;;;;10.60;9.50;;;5.40;99.90;;;;;;5031040;28;20163;-63
2023/01/19 00:04:50;;;;;;;10.60;9.10;;;5.50;99.90;;;;;;5031877;28;20174;-63
2023/01/19 00:07:16;;;;;;;10.75;9.63;;;5.50;99.90;;;;;;5031004;28;20586;-64
2023/01/19 00:09:42;;;;;;;10.23;8.95;;;5.50;99.90;;;;;;5032070;28;20191;-63
2023/01/19 00:12:08;;;;;;;10.50;9.07;;;5.50;99.90;;;;;;5031821;28;20198;-63
2023/01/19 00:14:34;;;;;;;9.82;8.82;;;5.60;99.90;;;;;;5036841;28;20174;-64
2023/01/19 00:17:00;;;;;;;10.93;9.83;;;5.60;99.90;;;;;;5055280;28;20223;-63
2023/01/19 00:19:27;;;;;;;11.65;10.48;;;5.60;99.90;;;;;;5052043;28;20202;-63
2023/01/19 00:21:53;;;;;;;11.38;10.23;;;5.50;99.90;;;;;;5052925;28;20178;-64
2023/01/19 00:24:19;;;;;;;10.18;8.65;;;5.60;99.90;;;;;;5052248;28;20201;-63
2023/01/19 00:26:45;;;;;;;10.70;8.97;;;5.50;99.90;;;;;;5055278;28;20170;-63
2023/01/19 00:29:12;;;;;;;11.07;9.95;;;5.50;99.90;;;;;;5053132;28;20435;-67
2023/01/19 00:31:38;;;;;;;10.30;9.20;;;5.50;99.90;;;;;;5053327;28;20189;-63
2023/01/19 00:34:05;;;;;;;10.43;9.30;;;5.50;99.90;;;;;;5055495;28;20170;-63
2023/01/19 00:36:31;;;;;;;12.30;9.95;;;5.50;99.90;;;;;;5054120;28;20273;-63
2023/01/19 00:38:57;;;;;;;11.05;9.10;;;5.60;99.90;;;;;;5055186;28;20209;-63
2023/01/19 00:42:38;;;;;;;12.33;9.80;;;5.50;99.90;;;;;;5052875;28;20226;-63
2023/01/19 00:44:10;;;;;;;12.13;9.45;;;5.60;99.90;;;;;;5053784;28;20216;-63
2023/01/19 00:46:37;;;;;;;10.18;9.18;;;5.70;99.90;;;;;;5053028;28;20170;-63
2023/01/19 00:49:03;;;;;;;12.70;10.07;;;5.70;99.90;;;;;;5054939;28;20312;-63
2023/01/19 00:51:29;;;;;;;12.77;10.43;;;5.70;99.90;;;;;;5051183;28;20200;-63
2023/01/19 00:53:55;;;;;;;11.35;9.15;;;5.80;99.90;;;;;;5054531;28;20174;-63
2023/01/19 00:56:21;;;;;;;15.27;8.83;;;5.80;99.90;;;;;;5054010;28;20174;-64
2023/01/19 00:58:46;;;;;;;11.30;9.70;;;5.80;99.90;;;;;;5053711;28;20723;-63
2023/01/19 01:01:12;;;;;;;11.20;10.10;;;5.70;99.90;;;;;;5054444;28;20166;-67
2023/01/19 01:03:38;;;;;;;10.63;9.37;;;5.70;99.90;;;;;;5053945;28;20523;-63
2023/01/19 01:06:07;;;;;;;10.20;9.03;;;5.60;99.90;;;;;;5052744;28;20178;-63
2023/01/19 01:08:33;;;;;;;10.57;9.57;;;5.50;99.90;;;;;;5053563;28;20175;-63
2023/01/19 01:10:59;;;;;;;10.30;8.90;;;5.50;99.90;;;;;;5053522;28;20689;-63
2023/01/19 01:13:25;;;;;;;10.35;9.25;;;5.50;99.90;;;;;;5053717;28;20202;-63
2023/01/19 01:15:53;;;;;;;11.52;9.60;;;5.60;99.90;;;;;;5054428;28;20181;-63
2023/01/19 01:18:19;;;;;;;10.13;9.13;;;5.60;99.90;;;;;;5053636;28;20200;-64
2023/01/19 01:20:45;;;;;;;10.27;9.27;;;5.70;99.90;;;;;;5051900;28;20298;-64
2023/01/19 01:23:11;;;;;;;10.40;9.40;;;5.60;99.90;;;;;;5054320;28;20550;-63
2023/01/19 01:25:37;;;;;;;10.73;9.63;;;5.60;99.90;;;;;;5052305;28;20177;-64
2023/01/19 01:28:07;;;;;;;10.73;9.67;;;5.60;99.90;;;;;;5053053;28;20182;-63
2023/01/19 01:30:38;;;;;;;11.05;9.63;;;5.60;99.90;;;;;;5053711;28;20193;-66
2023/01/19 01:33:04;;;;;;;11.68;8.88;;;5.70;99.90;;;;;;5054298;28;20512;-64
2023/01/19 01:35:31;;;;;;;11.27;9.83;;;5.70;99.90;;;;;;5052094;28;20174;-64
2023/01/19 01:37:57;;;;;;;10.80;9.35;;;5.70;99.90;;;;;;5053876;28;20416;-66
2023/01/19 01:40:23;;;;;;;12.57;9.90;;;5.70;99.90;;;;;;5052782;28;20287;-63
2023/01/19 01:42:49;;;;;;;11.07;9.63;;;5.70;99.90;;;;;;5053768;28;20522;-63
2023/01/19 01:45:36;;;;;;;13.03;9.27;;;5.70;99.90;;;;;;5052525;28;20210;-67
2023/01/19 01:48:07;;;;;;;10.15;9.07;;;5.60;99.90;;;;;;5052872;28;20208;-63
2023/01/19 01:50:37;;;;;;;12.13;10.05;;;5.50;99.90;;;;;;5051856;28;20596;-63
2023/01/19 01:53:10;;;;;;;13.40;10.38;;;5.50;99.90;;;;;;5053075;28;20185;-63
2023/01/19 01:55:42;;;;;;;14.20;9.88;;;5.50;99.90;;;;;;5052198;28;20189;-64
2023/01/19 01:58:10;;;;;;;12.38;9.95;;;5.50;99.90;;;;;;5052464;28;20181;-63
2023/01/19 02:03:24;;;;;;;13.40;10.32;;;5.50;99.90;;;;;;5052805;28;20166;-64
2023/01/19 02:05:50;;;;;;;13.52;10.57;;;5.40;99.90;;;;;;5053108;28;20178;-63
2023/01/19 02:13:57;;;;;;;11.32;9.27;;;5.50;99.90;;;;;;5053753;28;20663;-63
2023/01/19 02:16:22;;;;;;;10.20;8.93;;;5.30;99.90;;;;;;5051445;28;20264;-63
2023/01/19 02:18:51;;;;;;;10.93;9.10;;;5.30;99.90;;;;;;5053440;28;20558;-63
2023/01/19 02:21:48;;;;;;;10.88;9.85;;;5.30;99.90;;;;;;5050683;28;20228;-67
2023/01/19 02:24:14;;;;;;;10.07;8.35;;;5.30;99.90;;;;;;5052919;28;20196;-61
2023/01/19 02:26:44;;;;;;;9.40;8.50;;;5.40;99.90;;;;;;5052372;28;20666;-61
2023/01/19 02:29:13;;;;;;;10.23;8.73;;;5.40;99.90;;;;;;5051826;28;20403;-62
2023/01/19 02:31:40;;;;;;;9.05;8.05;;;5.50;99.90;;;;;;5051886;28;20205;-63
2023/01/19 02:34:08;;;;;;;9.82;8.82;;;5.40;99.90;;;;;;5052809;28;20198;-63
2023/01/19 02:36:53;;;;;;;12.20;9.27;;;5.50;99.90;;;;;;5051708;28;20174;-63
2023/01/19 02:39:25;;;;;;;9.77;8.75;;;5.60;99.90;;;;;;5052167;28;20198;-68
2023/01/19 02:41:55;;;;;;;11.27;8.90;;;5.60;99.90;;;;;;5052982;28;20685;-63
2023/01/19 02:44:23;;;;;;;9.70;8.70;;;5.50;99.90;;;;;;5047018;28;20180;-67
2023/01/19 02:46:49;;;;;;;10.05;8.43;;;5.70;99.90;;;;;;5052439;28;20626;-63
2023/01/19 02:49:15;;;;;;;8.68;7.78;;;5.70;99.90;;;;;;5051241;28;20327;-63
2023/01/19 02:51:43;;;;;;;10.03;8.53;;;5.60;99.90;;;;;;5049661;28;20686;-63
2023/01/19 02:54:25;;;;;;;11.10;8.10;;;5.60;99.90;;;;;;5052591;28;20174;-63
2023/01/19 02:56:51;;;;;;;8.15;7.38;;;5.50;99.90;;;;;;5053032;28;20193;-63
2023/01/19 02:59:38;;;;;;;7.90;6.97;;;5.50;99.90;;;;;;5052423;28;20668;-64
2023/01/19 03:02:17;;;;;;;8.50;7.70;;;5.50;99.90;;;;;;5032459;28;20189;-63
2023/01/19 03:04:51;;;;;;;7.97;6.82;;;5.50;99.90;;;;;;5051701;28;20574;-63
2023/01/19 03:07:46;;;;;;;10.90;7.78;;;5.50;99.90;;;;;;5052371;28;20568;-63
2023/01/19 03:11:07;;;;;;;8.40;7.55;;;5.50;99.90;;;;;;5048222;28;20221;-66
2023/01/19 03:14:05;;;;;;;11.90;8.20;;;5.40;99.90;;;;;;5029297;28;20240;-63
2023/01/19 03:17:06;;;;;;;10.90;8.50;;;5.40;99.90;;;;;;5051759;28;20170;-63
2023/01/19 03:19:41;;;;;;;9.38;8.32;;;5.30;99.90;;;;;;5046662;28;20225;-63
2023/01/19 03:22:14;;;;;;;8.73;7.85;;;5.30;99.90;;;;;;5050682;28;20185;-63
2023/01/19 03:24:43;;;;;;;9.70;7.55;;;5.40;99.90;;;;;;5048373;28;20178;-63
2023/01/19 03:27:25;;;;;;;9.77;7.85;;;5.30;99.90;;;;;;5050986;28;20250;-63
2023/01/19 03:30:03;;;;;;;9.90;7.50;;;5.40;99.90;;;;;;5052131;28;20173;-63
2023/01/19 03:32:36;;;;;;;8.32;7.53;;;5.40;99.90;;;;;;5050745;28;20213;-64
2023/01/19 03:35:08;;;;;;;8.02;7.18;;;5.40;99.90;;;;;;5031503;28;20183;-63
2023/01/19 03:37:38;;;;;;;9.13;7.30;;;5.40;99.90;;;;;;5031718;28;20205;-63
2023/01/19 03:40:04;;;;;;;8.60;7.70;;;5.40;99.90;;;;;;5032055;28;20240;-63
2023/01/19 03:42:30;;;;;;;8.95;7.95;;;5.50;99.90;;;;;;5031132;28;20203;-63
2023/01/19 03:44:59;;;;;;;8.18;7.35;;;5.50;99.90;;;;;;5032116;28;20497;-63
2023/01/19 03:47:25;;;;;;;8.50;7.60;;;5.50;99.90;;;;;;5031458;28;20174;-67
2023/01/19 03:49:53;;;;;;;10.73;7.40;;;5.40;99.90;;;;;;5032312;28;20251;-64
2023/01/19 03:52:32;;;;;;;8.50;7.38;;;5.50;99.90;;;;;;5054936;28;20193;-63
2023/01/19 03:55:00;;;;;;;10.05;7.38;;;5.50;99.90;;;;;;5056119;28;20506;-63
2023/01/19 03:57:25;;;;;;;10.32;7.50;;;5.50;99.90;;;;;;5053274;28;20542;-68
2023/01/19 03:59:52;;;;;;;7.50;6.40;;;5.50;99.90;;;;;;5054466;28;20217;-63
2023/01/19 04:02:18;;;;;;;9.52;7.47;;;5.50;99.90;;;;;;5056108;28;20398;-63
2023/01/19 04:04:44;;;;;;;7.53;6.72;;;5.40;99.90;;;;;;5055026;28;20240;-63
2023/01/19 04:07:10;;;;;;;8.37;7.53;;;5.40;99.90;;;;;;5055703;28;20174;-64
2023/01/19 04:09:36;;;;;;;8.90;8.00;;;5.40;99.90;;;;;;5054629;28;20182;-63
2023/01/19 04:12:02;;;;;;;8.35;7.35;;;5.50;99.90;;;;;;5054880;28;20276;-64
2023/01/19 04:14:28;;;;;;;8.77;7.80;;;5.60;99.90;;;;;;5053428;28;20225;-64
2023/01/19 04:16:54;;;;;;;7.60;6.90;;;5.60;99.90;;;;;;5053119;28;20522;-65
2023/01/19 04:19:20;;;;;;;8.07;7.20;;;5.50;99.90;;;;;;5053093;28;20587;-64
2023/01/19 04:21:48;;;;;;;8.80;7.80;;;5.60;99.90;;;;;;5053492;28;20205;-63
2023/01/19 04:24:14;;;;;;;8.65;7.75;;;5.60;99.90;;;;;;5053732;28;20582;-63
2023/01/19 04:26:39;;;;;;;8.37;7.57;;;5.60;99.90;;;;;;5054825;28;20188;-64
2023/01/19 04:29:05;;;;;;;9.43;7.87;;;5.60;99.90;;;;;;5055374;28;20224;-63
2023/01/19 04:31:31;;;;;;;9.90;7.87;;;5.60;99.90;;;;;;5053844;28;20206;-64
2023/01/19 04:33:57;;;;;;;9.15;7.40;;;5.60;99.90;;;;;;5055434;28;20170;-63
2023/01/19 04:36:23;;;;;;;9.40;7.53;;;5.60;99.90;;;;;;5055186;28;20174;-63
2023/01/19 04:38:48;;;;;;;8.50;7.70;;;5.60;99.90;;;;;;5054376;28;20317;-63
2023/01/19 04:41:14;;;;;;;11.27;7.90;;;5.60;99.90;;;;;;5050451;28;20329;-64
2023/01/19 04:43:40;;;;;;;9.70;8.90;;;5.60;99.90;;;;;;5053765;28;20247;-63
2023/01/19 04:46:06;;;;;;;8.77;7.40;;;6.00;99.90;;;;;;5050671;28;20181;-64
2023/01/19 04:48:32;;;;;;;8.45;7.60;;;5.60;99.90;;;;;;5049153;28;20196;-62
2023/01/19 04:50:58;;;;;;;6.93;6.22;;;5.60;99.90;;;;;;5052337;28;20174;-63
2023/01/19 04:53:23;;;;;;;9.37;8.10;;;5.60;99.90;;;;;;5055263;28;20198;-63
2023/01/19 04:55:55;;;;;;;9.63;8.70;;;5.60;99.90;;;;;;5040689;28;20225;-63
2023/01/19 04:58:21;;;;;;;9.90;8.70;;;5.60;99.90;;;;;;5043424;28;20182;-63
2023/01/19 05:00:47;;;;;;;9.82;7.80;;;5.60;99.90;;;;;;5052879;28;20213;-63
2023/01/19 05:03:13;;;;;;;9.13;8.43;;;5.70;99.90;;;;;;5053713;28;20618;-63
2023/01/19 05:05:39;;;;;;;9.00;8.10;;;5.50;99.90;;;;;;5053019;28;20770;-67
2023/01/19 05:08:05;;;;;;;8.87;8.00;;;5.40;99.90;;;;;;5054032;28;20261;-62
2023/01/19 05:10:30;;;;;;;9.40;8.53;;;5.40;99.90;;;;;;5054288;28;20193;-62
2023/01/19 05:12:56;;;;;;;9.77;8.87;;;5.40;99.90;;;;;;5053727;28;20174;-62
2023/01/19 05:15:22;;;;;;;11.70;9.00;;;5.10;99.90;;;;;;5052446;28;20166;-63
2023/01/19 05:17:48;;;;;;;9.27;8.57;;;5.00;99.90;;;;;;5052942;28;20281;-62
2023/01/19 05:20:14;;;;;;;10.17;9.10;;;5.00;99.90;;;;;;5051267;28;20470;-63
2023/01/19 05:22:39;;;;;;;8.83;8.03;;;5.00;99.90;;;;;;5051424;28;20178;-62
2023/01/19 05:25:07;;;;;;;9.87;8.97;;;5.10;99.90;;;;;;5054445;28;20256;-64
2023/01/19 05:27:33;;;;;;;9.30;8.35;;;5.00;99.90;;;;;;5051244;28;20311;-62
2023/01/19 05:29:59;;;;;;;8.27;7.45;;;5.00;99.90;;;;;;5053456;28;20189;-62
2023/01/19 05:32:25;;;;;;;10.23;9.23;;;4.90;99.90;;;;;;5049677;28;20651;-63
2023/01/19 05:34:51;;;;;;;7.60;6.90;;;4.90;99.90;;;;;;5052305;28;20404;-63
2023/01/19 05:37:17;;;;;;;7.37;6.67;;;5.10;99.90;;;;;;5052240;28;20269;-62
2023/01/19 05:39:42;;;;;;;9.37;6.80;;;5.00;99.90;;;;;;5050763;28;20216;-62
2023/01/19 05:42:08;;;;;;;7.40;6.70;;;5.10;99.90;;;;;;5050605;28;20174;-62
2023/01/19 05:44:34;;;;;;;6.90;6.27;;;5.00;99.90;;;;;;5053807;28;20312;-62
2023/01/19 05:46:59;;;;;;;6.90;6.00;;;5.00;99.90;;;;;;5053090;28;20175;-62
2023/01/19 05:49:25;;;;;;;5.70;5.20;;;5.00;99.90;;;;;;5053412;28;20613;-62
2023/01/19 05:51:51;;;;;;;6.80;5.30;;;5.00;99.90;;;;;;5053931;28;20178;-62
2023/01/19 05:54:16;;;;;;;7.30;6.13;;;5.00;99.90;;;;;;5052729;28;20174;-62
2023/01/19 05:56:42;;;;;;;6.67;5.53;;;5.10;99.90;;;;;;5052400;28;20178;-62
2023/01/19 05:59:09;;;;;;;7.83;7.13;;;5.10;99.90;;;;;;5053972;28;20645;-62
2023/01/19 06:01:36;;;;;;;7.70;7.10;;;5.10;99.90;;;;;;5052246;28;20224;-62
2023/01/19 06:04:01;;;;;;;7.10;6.45;;;5.20;99.90;;;;;;5051609;28;20181;-62
2023/01/19 06:06:27;;;;;;;9.52;8.65;;;5.10;99.90;;;;;;5053633;28;20181;-62
2023/01/19 06:08:53;;;;;;;8.30;7.60;;;5.10;99.90;;;;;;5052126;28;20273;-62
2023/01/19 06:11:19;;;;;;;6.23;5.73;;;5.10;99.90;;;;;;5051928;28;20181;-62
2023/01/19 06:13:46;;;;;;;6.10;5.60;;;5.10;99.90;;;;;;5052864;28;20532;-62
2023/01/19 06:16:13;;;;;;;6.40;5.80;;;5.00;99.90;;;;;;5051548;28;20176;-62
2023/01/19 06:18:39;;;;;;;5.35;4.90;;;5.00;99.90;;;;;;5051883;28;20170;-65
2023/01/19 06:21:09;;;;;;;6.93;6.22;;;5.10;99.90;;;;;;5053795;28;20264;-62
2023/01/19 06:23:37;;;;;;;8.73;7.93;;;5.20;99.90;;;;;;5051819;28;20238;-63
2023/01/19 06:26:03;;;;;;;8.32;7.57;;;5.20;99.90;;;;;;5051493;28;20185;-62
2023/01/19 06:28:29;;;;;;;5.90;5.40;;;5.20;99.90;;;;;;5053291;28;20178;-62
2023/01/19 06:30:55;;;;;;;6.20;5.70;;;5.20;99.90;;;;;;5051909;28;20174;-62
2023/01/19 06:33:22;;;;;;;5.63;5.22;;;5.10;99.90;;;;;;5052107;28;20636;-62
2023/01/19 06:35:49;;;;;;;6.00;5.40;;;5.10;99.90;;;;;;5052830;28;20166;-62
2023/01/19 06:38:18;;;;;;;6.53;5.35;;;5.10;99.90;;;;;;5052214;28;20209;-62
2023/01/19 06:40:50;;;;;;;5.57;5.07;;;5.20;99.90;;;;;;5051178;28;20257;-62
2023/01/19 06:43:16;;;;;;;4.93;4.53;;;5.20;99.90;;;;;;5052492;28;20212;-63
2023/01/19 06:45:42;;;;;;;4.50;4.20;;;5.20;99.90;;;;;;5067884;28;20182;-62
2023/01/19 06:48:08;;;;;;;4.33;4.00;;;5.20;99.90;;;;;;5049683;28;20169;-64
2023/01/19 06:50:34;;;;;;;4.28;3.88;;;5.20;99.90;;;;;;5048102;28;20272;-63
2023/01/19 06:52:59;;;;;;;4.93;4.47;;;5.30;99.90;;;;;;5039453;28;20260;-62
2023/01/19 06:55:25;;;;;;;5.10;4.70;;;5.30;99.90;;;;;;5050928;28;20178;-62
2023/01/19 06:57:58;;;;;;;5.33;4.90;;;5.60;99.90;;;;;;5048637;28;20231;-62
2023/01/19 07:00:24;;;;;;;5.47;5.07;;;5.30;99.90;;;;;;5052488;28;20557;-62
2023/01/19 07:02:50;;;;;;;5.57;5.00;;;5.30;99.90;;;;;;5050712;28;20186;-62
2023/01/19 07:05:16;;;;;;;5.40;5.10;;;5.30;99.90;;;;;;5053108;28;20173;-62
2023/01/19 07:07:44;;;;;;;5.60;5.20;;;5.30;99.90;;;;;;5047028;28;20681;-62
2023/01/19 07:10:14;;;;;;;6.53;4.63;;;5.30;99.90;;;;;;5036239;28;20284;-62
2023/01/19 07:12:40;;;;;;;4.10;3.80;;;5.30;99.90;;;;;;5050861;28;20319;-63
2023/01/19 07:15:06;;;;;;;3.20;2.90;;;5.20;99.90;;;;;;5052453;28;20181;-62
2023/01/19 07:17:32;;;;;;;3.22;3.03;;;5.10;99.90;;;;;;5050533;28;20212;-63
2023/01/19 07:19:58;;;;;;;3.90;3.60;;;5.10;99.90;;;;;;5050891;28;20197;-62
2023/01/19 07:22:23;;;;;;;3.50;3.30;;;5.10;99.90;;;;;;5052500;28;20182;-63
2023/01/19 07:24:49;;;;;;;3.70;3.47;;;5.10;99.90;;;;;;5050702;28;20186;-64
2023/01/19 07:27:15;;;;;;;3.33;3.13;;;5.10;99.90;;;;;;5050376;28;20224;-63
2023/01/19 07:29:41;;;;;;;2.97;2.77;;;5.20;99.90;;;;;;5051942;28;20174;-64
2023/01/19 07:32:07;;;;;;;3.40;3.03;;;5.20;99.90;;;;;;5050958;28;20443;-64
2023/01/19 07:34:33;;;;;;;4.70;4.30;;;5.20;99.90;;;;;;5051099;28;20432;-64
2023/01/19 07:36:59;;;;;;;4.78;4.38;;;5.20;99.90;;;;;;5050665;28;20426;-64
2023/01/19 07:39:24;;;;;;;4.03;3.80;;;5.30;99.90;;;;;;5052736;28;20655;-64
2023/01/19 07:41:50;;;;;;;4.10;3.73;;;5.30;99.90;;;;;;5048944;28;20230;-64
2023/01/19 07:44:16;;;;;;;3.70;3.50;;;5.30;99.90;;;;;;5050858;28;20280;-64
2023/01/19 07:46:42;;;;;;;3.60;3.40;;;5.20;99.90;;;;;;5051967;28;20170;-63
2023/01/19 07:49:08;;;;;;;3.67;3.47;;;5.20;99.90;;;;;;5050821;28;20177;-63
2023/01/19 07:51:33;;;;;;;4.20;3.90;;;5.10;99.90;;;;;;5052384;28;20311;-63
2023/01/19 07:54:00;;;;;;;4.00;3.70;;;5.10;99.90;;;;;;5049621;28;20193;-63
2023/01/19 07:56:28;;;;;;;3.70;3.45;;;5.00;99.90;;;;;;5050779;28;20184;-63
2023/01/19 07:58:54;;;;;;;3.72;3.50;;;5.10;99.90;;;;;;5050325;28;20182;-62
2023/01/19 08:01:20;;;;;;;3.30;3.10;;;5.20;99.90;;;;;;5052002;28;20182;-63
2023/01/19 08:03:47;;;;;;;3.10;2.90;;;5.20;99.90;;;;;;5050314;28;20515;-63
2023/01/19 08:06:20;;;;;;;3.28;3.00;;;5.20;99.90;;;;;;5049293;28;20193;-63
2023/01/19 08:08:46;;;;;;;5.57;3.38;;;5.20;99.90;;;;;;5056289;28;20192;-64
2023/01/19 08:11:12;;;;;;;3.45;3.28;;;5.30;99.90;;;;;;5051912;28;20205;-63
2023/01/19 08:13:38;;;;;;;4.03;3.53;;;5.30;99.90;;;;;;5050201;28;20261;-64
2023/01/19 08:16:04;;;;;;;4.10;3.70;;;5.40;99.90;;;;;;5049741;28;20182;-63
2023/01/19 08:18:30;;;;;;;5.32;4.15;;;5.30;99.90;;;;;;5051480;28;20634;-63
2023/01/19 08:20:58;;;;;;;4.20;3.90;;;5.30;99.90;;;;;;5049630;28;20214;-63
2023/01/19 08:23:26;;;;;;;5.47;4.60;;;5.40;99.90;;;;;;5050267;28;20713;-63
2023/01/19 08:25:53;;;;;;;5.60;5.07;;;5.40;99.90;;;;;;5050261;28;20178;-63
2023/01/19 08:28:19;;;;;;;5.70;5.30;;;5.40;99.90;;;;;;5050752;28;20533;-63
2023/01/19 08:30:52;;;;;;;6.90;6.20;;;5.40;99.90;;;;;;5050149;28;20190;-63
2023/01/19 08:33:19;;;;;;;8.10;7.40;;;5.40;99.90;;;;;;5058170;28;20543;-64
2023/01/19 08:35:47;;;;;;;8.65;7.75;;;5.50;99.90;;;;;;5048205;28;20267;-64
2023/01/19 08:38:14;;;;;;;7.15;6.55;;;5.40;99.90;;;;;;5053009;28;20584;-63
2023/01/19 08:40:40;;;;;;;7.15;6.07;;;5.40;99.90;;;;;;5053387;28;20230;-64
2023/01/19 08:43:15;;;;;;;7.55;6.95;;;5.50;99.90;;;;;;5055487;28;20173;-65
2023/01/19 08:45:47;;;;;;;7.53;6.82;;;5.50;99.90;;;;;;5054658;28;20172;-63
2023/01/19 08:48:20;;;;;;;10.50;7.50;;;5.50;99.90;;;;;;5059104;28;20178;-63
2023/01/19 08:50:47;;;;;;;9.32;8.40;;;5.50;99.90;;;;;;5053540;28;20247;-63
2023/01/19 08:53:14;;;;;;;8.15;7.45;;;5.40;99.90;;;;;;5048807;28;20178;-65
2023/01/19 08:55:40;;;;;;;8.40;7.60;;;5.50;99.90;;;;;;5052293;28;20189;-68
2023/01/19 08:58:09;;;;;;;9.05;8.15;;;5.50;99.90;;;;;;5052747;28;20190;-62
2023/01/19 09:00:37;;;;;;;10.00;7.93;;;5.40;99.90;;;;;;5053725;28;20630;-63
2023/01/19 09:03:05;;;;;;;10.52;7.95;;;5.50;99.90;;;;;;5035553;28;20189;-63
2023/01/19 09:05:34;;;;;;;10.57;8.23;;;5.50;99.90;;;;;;5054686;28;20649;-63
2023/01/19 09:08:01;;;;;;;9.70;8.52;;;5.50;99.90;;;;;;5053086;28;20625;-63
2023/01/19 09:10:30;;;;;;;11.55;7.82;;;5.60;99.90;;;;;;5053100;28;20588;-63
2023/01/19 09:12:56;;;;;;;8.95;8.00;;;5.50;99.90;;;;;;5053284;28;20233;-64
2023/01/19 09:15:22;;;;;;;11.75;9.18;;;5.50;99.90;;;;;;5034904;28;20549;-63
2023/01/19 09:17:50;;;;;;;10.00;9.00;;;5.50;99.90;;;;;;5043852;28;20186;-63
2023/01/19 09:20:16;;;;;;;10.25;9.13;;;5.40;99.90;;;;;;5052154;28;20854;-63
2023/01/19 09:22:42;;;;;;;10.10;8.70;;;5.30;99.90;;;;;;5053043;28;20185;-67
2023/01/19 09:25:08;;;;;;;10.97;9.30;;;5.40;99.90;;;;;;5054794;28;20174;-63
2023/01/19 09:27:34;;;;;;;10.85;9.80;;;5.30;99.90;;;;;;5054641;28;20383;-63
2023/01/19 09:30:00;;;;;;;11.00;8.83;;;5.30;99.90;;;;;;5051659;28;20185;-63
2023/01/19 09:32:25;;;;;;;12.03;9.50;;;5.40;99.90;;;;;;5054577;28;20184;-63
2023/01/19 09:34:52;;;;;;;12.60;10.57;;;5.40;99.90;;;;;;5053857;28;20178;-63
2023/01/19 09:37:18;;;;;;;13.63;11.25;;;5.40;99.90;;;;;;5054396;28;20177;-63
2023/01/19 09:39:44;;;;;;;12.13;10.87;;;5.50;99.90;;;;;;5053912;28;20209;-67
2023/01/19 09:42:37;;;;;;;12.13;10.30;;;5.40;99.90;;;;;;5053089;28;20188;-63
2023/01/19 09:45:44;;;;;;;11.75;9.93;;;5.40;99.90;;;;;;5053514;28;20324;-63
2023/01/19 09:48:29;;;;;;;14.15;11.00;;;5.50;99.90;;;;;;5053371;28;20253;-63
2023/01/19 09:51:00;;;;;;;11.82;9.60;;;5.50;99.90;;;;;;5052711;28;20526;-63
2023/01/19 09:53:39;;;;;;;13.02;10.77;;;5.50;99.90;;;;;;5054414;28;20500;-63
2023/01/19 09:56:11;;;;;;;11.60;10.40;;;5.50;99.90;;;;;;5053632;28;20220;-63
2023/01/19 09:58:36;;;;;;;11.32;10.02;;;5.60;99.90;;;;;;5054095;28;20174;-63
2023/01/19 10:01:22;;;;;;;16.43;10.50;;;5.60;99.90;;;;;;5052167;28;20216;-62
2023/01/19 10:03:59;;;;;;;12.50;10.30;;;5.60;99.90;;;;;;5052201;28;20590;-63
2023/01/19 10:06:25;;;;;;;11.95;10.65;;;5.60;99.90;;;;;;5053648;28;20173;-63
2023/01/19 10:08:59;;;;;;;12.02;10.25;;;5.60;99.90;;;;;;5053308;28;20180;-63
2023/01/19 10:12:07;;;;;;;14.10;11.18;;;5.70;99.90;;;;;;5051905;28;20188;-63
2023/01/19 10:14:41;;;;;;;13.20;10.43;;;5.70;99.90;;;;;;5053612;28;20193;-63
2023/01/19 10:17:43;;;;;;;14.65;11.73;;;5.80;99.90;;;;;;5049225;28;20264;-63
2023/01/19 10:20:33;;;;;;;14.18;11.45;;;5.80;99.90;;;;;;5050529;28;20288;-63
2023/01/19 10:23:02;;;;;;;12.98;11.48;;;5.80;99.90;;;;;;5052365;28;20196;-63
2023/01/19 10:25:28;;;;;;;18.50;12.23;;;5.80;99.90;;;;;;5053554;28;20178;-63
2023/01/19 10:27:54;;;;;;;13.68;12.40;;;5.90;99.90;;;;;;5052973;28;20248;-63
2023/01/19 10:30:27;;;;;;;16.13;11.83;;;5.90;99.90;;;;;;5052246;28;20224;-63
2023/01/19 10:32:53;;;;;;;14.73;11.30;;;5.90;99.90;;;;;;5052709;28;20729;-63
2023/01/19 10:35:23;;;;;;;14.97;11.20;;;5.90;99.90;;;;;;5053364;28;20174;-63
2023/01/19 10:37:56;;;;;;;12.65;10.57;;;5.90;99.90;;;;;;5053030;28;20190;-63
2023/01/19 10:40:33;;;;;;;14.80;11.20;;;6.00;99.90;;;;;;5050632;28;20257;-63
2023/01/19 10:42:59;;;;;;;18.35;11.95;;;6.00;99.90;;;;;;5052629;28;20185;-63
2023/01/19 10:45:29;;;;;;;12.27;10.77;;;6.10;99.90;;;;;;5053169;28;20173;-63
2023/01/19 10:47:59;;;;;;;15.85;10.90;;;6.00;99.90;;;;;;5052592;28;20178;-63
2023/01/19 10:50:31;;;;;;;14.10;11.32;;;6.10;99.90;;;;;;5051927;28;20186;-63
2023/01/19 10:53:04;;;;;;;15.43;11.70;;;6.00;99.90;;;;;;5052470;28;20255;-63
2023/01/19 10:55:36;;;;;;;16.27;11.18;;;6.00;99.90;;;;;;5052850;28;20173;-63
2023/01/19 10:58:04;;;;;;;14.98;12.30;;;6.00;99.90;;;;;;5052212;28;20177;-63
2023/01/19 11:00:33;;;;;;;15.85;11.20;;;6.00;99.90;;;;;;5050925;28;20251;-63
2023/01/19 11:02:59;;;;;;;18.60;11.30;;;6.00;99.90;;;;;;5050865;28;20228;-63
2023/01/19 11:05:27;;;;;;;18.47;12.60;;;5.90;99.90;;;;;;5049629;28;20178;-63
2023/01/19 11:07:54;;;;;;;12.68;11.05;;;6.00;99.90;;;;;;5051844;28;20387;-63
2023/01/19 11:10:25;;;;;;;16.85;11.90;;;6.00;99.90;;;;;;5052476;28;20703;-63
2023/01/19 11:13:11;;;;;;;22.73;12.90;;;6.00;99.90;;;;;;5050861;28;20174;-63
2023/01/19 11:15:58;;;;;;;18.45;12.25;;;5.90;99.90;;;;;;5050692;28;20770;-63
2023/01/19 11:18:36;;;;;;;14.73;10.70;;;5.80;99.90;;;;;;5052730;28;20241;-63
2023/01/19 11:21:05;;;;;;;18.15;11.50;;;5.80;99.90;;;;;;5052091;28;20226;-63
2023/01/19 11:23:42;;;;;;;15.95;12.20;;;5.80;99.90;;;;;;5052972;28;20185;-62
2023/01/19 11:26:15;;;;;;;17.60;13.57;;;5.80;99.90;;;;;;5050547;28;20175;-63
2023/01/19 11:28:46;;;;;;;18.40;14.40;;;5.80;99.90;;;;;;5051471;28;20162;-62
2023/01/19 11:31:16;;;;;;;20.02;14.05;;;5.90;99.90;;;;;;5050738;28;20526;-62
2023/01/19 11:33:48;;;;;;;17.48;13.77;;;5.90;99.90;;;;;;5051332;28;20179;-62
2023/01/19 11:36:16;;;;;;;24.77;13.10;;;5.90;99.90;;;;;;5051354;28;20192;-62
2023/01/19 11:38:49;;;;;;;18.75;13.80;;;5.90;99.90;;;;;;5052546;28;20253;-62
2023/01/19 11:41:38;;;;;;;24.98;13.60;;;5.90;99.90;;;;;;5052124;28;20226;-63
2023/01/19 11:44:18;;;;;;;20.70;13.45;;;5.90;99.90;;;;;;5048630;28;20197;-63
2023/01/19 11:46:46;;;;;;;20.30;13.20;;;5.90;99.90;;;;;;5050356;28;20181;-62
2023/01/19 11:49:42;;;;;;;20.75;14.38;;;5.90;99.90;;;;;;5050287;28;20186;-62
2023/01/19 11:52:46;;;;;;;19.58;14.80;;;5.90;99.90;;;;;;5051457;28;20607;-62
2023/01/19 11:55:52;;;;;;;20.42;14.43;;;6.00;99.90;;;;;;5049020;28;20193;-62
2023/01/19 11:58:19;;;;;;;20.85;14.55;;;5.90;99.90;;;;;;5052366;28;20177;-63
2023/01/19 12:01:13;;;;;;;23.90;14.63;;;6.00;99.90;;;;;;5034392;28;20227;-62
2023/01/19 12:03:41;;;;;;;23.00;15.10;;;6.00;99.90;;;;;;5049952;28;20573;-62
2023/01/19 12:06:13;;;;;;;23.00;14.40;;;6.00;99.90;;;;;;5051557;28;20573;-62
2023/01/19 12:08:51;;;;;;;21.75;15.27;;;6.00;99.90;;;;;;5052029;28;20241;-63
2023/01/19 12:11:31;;;;;;;28.10;15.57;;;6.00;99.90;;;;;;5053064;28;20258;-63
2023/01/19 12:13:58;;;;;;;23.33;15.00;;;6.00;99.90;;;;;;5055540;28;20163;-63
2023/01/19 12:16:31;;;;;;;20.15;14.65;;;6.20;99.90;;;;;;5054801;28;20178;-62
2023/01/19 12:19:05;;;;;;;24.05;15.52;;;6.10;99.90;;;;;;5055269;28;20174;-63
2023/01/19 12:21:30;;;;;;;27.98;14.85;;;6.20;99.90;;;;;;5053744;28;20704;-63
2023/01/19 12:24:16;;;;;;;24.53;14.60;;;6.20;99.90;;;;;;5055254;28;20174;-63
2023/01/19 12:26:56;;;;;;;24.38;14.38;;;6.30;99.90;;;;;;5056025;28;20488;-64
2023/01/19 12:29:26;;;;;;;19.60;15.70;;;6.30;99.90;;;;;;5054728;28;20175;-63
2023/01/19 12:32:16;;;;;;;20.97;14.90;;;6.30;99.90;;;;;;5055426;28;20423;-63
2023/01/19 12:34:46;;;;;;;25.05;15.98;;;6.30;99.90;;;;;;5055831;28;20480;-63
2023/01/19 12:37:31;;;;;;;21.33;14.33;;;6.30;99.90;;;;;;5055001;28;20214;-63
2023/01/19 12:40:18;;;;;;;22.02;14.25;;;6.40;99.90;;;;;;5053660;28;20478;-63
2023/01/19 12:42:50;;;;;;;24.83;15.00;;;6.30;99.90;;;;;;5055575;28;20220;-63
2023/01/19 12:45:21;;;;;;;31.27;15.93;;;6.40;99.90;;;;;;5054002;28;20900;-63
2023/01/19 12:47:54;;;;;;;25.80;14.77;;;6.40;99.90;;;;;;5055482;28;20544;-63
2023/01/19 12:50:24;;;;;;;23.02;14.48;;;6.40;99.90;;;;;;5053422;28;20274;-63
2023/01/19 12:52:57;;;;;;;22.80;14.90;;;6.40;99.90;;;;;;5055334;28;20201;-63
2023/01/19 12:55:29;;;;;;;26.60;14.38;;;6.50;99.90;;;;;;5054985;28;20186;-63
2023/01/19 12:58:09;;;;;;;25.03;13.27;;;6.40;99.90;;;;;;5054949;28;20194;-63
2023/01/19 13:00:38;;;;;;;18.90;14.05;;;6.40;99.90;;;;;;5054043;28;20883;-63
2023/01/19 13:03:15;;;;;;;19.67;13.18;;;6.50;99.90;;;;;;5054572;28;20169;-63
2023/01/19 13:05:41;;;;;;;29.95;14.10;;;6.50;99.90;;;;;;5055267;28;20175;-63
2023/01/19 13:08:12;;;;;;;22.87;14.13;;;6.50;99.90;;;;;;5054321;28;20518;-64
2023/01/19 13:11:08;;;;;;;23.03;14.40;;;6.50;99.90;;;;;;5053082;28;20480;-64
2023/01/19 13:13:37;;;;;;;19.85;14.65;;;6.50;99.90;;;;;;5055114;28;20452;-64